Pays
Station

 

Conditions  météo  pour  Pretoria Irene  -  Afrique Du Sud    Afrique Du Sud

  
18 °C
    
 
 

METAR pour Pretoria Irene :

FAIR 200653Z 02002KT CAVOK 18/05 Q1027

 

Voici le bulletin pour Pretoria Irene - Afrique Du Sud.
 
Le bulletin a été fait il y a 5 heures et 35 minutes, à 06:53 UTC .
Le vent soufflait à la vitesse de 1.0 mètres par seconde de Nord/Nord-est (020°).
 
La température était de 18 °C, avec un point de rosée à 5 °C.
La pression atmosphérique était de 1027 hPa.
L'humidité relative était de 42.3%.
 
Il y avait pas de nuages en-dessous de 1500 mètres et pas de cumulonimbus.
 
La visibilité globale était de supérieure à 10 kilomètres.
 

 
 
 

Pays :   A   B   C   D   E   F   G   H   I   J   K   L   M   N   O   P   Q   R   S   T   U   V   W   Y   Z

 

Partenaires :  Info Météo avec Met'info
Météo Marine avec MeteoMarine.net
Infos Site  |  Infos Légales  |  Crédits  |  Confidentialité
Contactez-nous  |  Ajouter aux favoris
© 2013-2019 METAR - Tous droits réservés